Time,TemperatureF,DewpointF,PressureIn,WindDirection,WindDirectionDegrees,WindSpeedMPH,WindSpeedGustMPH,Humidity,HourlyPrecipIn,Conditions,Clouds,dailyrainin,SoftwareType,DateUTC
2013-04-12 00:10:00,59.2,57.0,29.48,SSE,149,4.0,-999.0,93,-99.99,,,0.57,weatherlink.com 1.10,2013-04-12 04:10:00,
2013-04-12 00:25:00,59.2,57.0,29.48,ESE,119,2.0,-999.0,93,-99.99,,,0.57,weatherlink.com 1.10,2013-04-12 04:25:00,
2013-04-12 00:40:00,59.2,57.0,29.48,ESE,113,0.0,-999.0,93,-99.99,,,0.57,weatherlink.com 1.10,2013-04-12 04:40:00,
2013-04-12 00:55:00,59.3,57.0,29.47,ESE,121,0.0,-999.0,93,-99.99,,,0.57,weatherlink.com 1.10,2013-04-12 04:55:00,
2013-04-12 01:10:00,59.4,57.0,29.46,SE,124,7.0,-999.0,93,-99.99,,,0.57,weatherlink.com 1.10,2013-04-12 05:10:00,
2013-04-12 01:25:00,59.8,58.0,29.46,ESE,119,0.0,-999.0,92,-99.99,,,0.00,weatherlink.com 1.10,2013-04-12 05:25:00,
2013-04-12 01:40:00,60.1,58.0,29.47,SE,145,2.0,-999.0,92,-99.99,,,0.00,weatherlink.com 1.10,2013-04-12 05:40:00,
2013-04-12 01:55:00,60.9,58.0,29.46,SSW,199,0.0,-999.0,90,-99.99,,,0.00,weatherlink.com 1.10,2013-04-12 05:55:00,
2013-04-12 02:10:00,61.3,58.0,29.46,South,183,3.0,-999.0,89,-99.99,,,0.00,weatherlink.com 1.10,2013-04-12 06:10:00,
2013-04-12 02:25:00,61.7,58.0,29.45,South,180,0.0,-999.0,88,-99.99,,,0.00,weatherlink.com 1.10,2013-04-12 06:25:00,
2013-04-12 02:40:00,61.9,58.0,29.45,SSW,213,2.0,-999.0,88,-99.99,,,0.02,weatherlink.com 1.10,2013-04-12 06:40:00,
2013-04-12 02:55:00,61.1,58.0,29.46,WNW,302,7.0,-999.0,90,-99.99,,,0.07,weatherlink.com 1.10,2013-04-12 06:55:00,
2013-04-12 03:10:00,59.7,57.0,29.49,NW,313,19.0,-999.0,92,-99.99,,,0.16,weatherlink.com 1.10,2013-04-12 07:10:00,
2013-04-12 03:25:00,56.9,54.0,29.50,NW,306,9.0,-999.0,91,-99.99,,,0.19,weatherlink.com 1.10,2013-04-12 07:25:00,
2013-04-12 03:40:00,56.0,54.0,29.51,WNW,292,12.0,-999.0,91,-99.99,,,0.21,weatherlink.com 1.10,2013-04-12 07:40:00,
2013-04-12 03:56:00,55.2,53.0,29.52,NW,319,9.0,-999.0,91,-99.99,,,0.22,weatherlink.com 1.10,2013-04-12 07:56:00,
2013-04-12 04:11:00,55.2,53.0,29.52,WNW,301,6.0,-999.0,91,-99.99,,,0.22,weatherlink.com 1.10,2013-04-12 08:11:00,
2013-04-12 04:26:00,54.9,52.0,29.55,WNW,291,5.0,-999.0,91,-99.99,,,0.22,weatherlink.com 1.10,2013-04-12 08:26:00,
2013-04-12 04:41:00,54.4,52.0,29.56,West,269,11.0,-999.0,91,-99.99,,,0.22,weatherlink.com 1.10,2013-04-12 08:41:00,
2013-04-12 04:56:00,54.0,52.0,29.57,WNW,283,9.0,-999.0,91,-99.99,,,0.23,weatherlink.com 1.10,2013-04-12 08:56:00,
2013-04-12 05:26:00,52.1,50.0,29.61,WNW,295,6.0,-999.0,91,-99.99,,,0.25,weatherlink.com 1.10,2013-04-12 09:26:00,
2013-04-12 05:41:00,51.3,49.0,29.62,WNW,292,9.0,-999.0,91,-99.99,,,0.25,weatherlink.com 1.10,2013-04-12 09:41:00,
2013-04-12 05:56:00,50.7,48.0,29.63,WNW,288,19.0,-999.0,91,-99.99,,,0.25,weatherlink.com 1.10,2013-04-12 09:56:00,
2013-04-12 06:11:00,47.9,45.0,29.64,WNW,282,6.0,-999.0,90,-99.99,,,0.25,weatherlink.com 1.10,2013-04-12 10:11:00,
2013-04-12 06:26:00,47.1,44.0,29.66,NW,311,5.0,-999.0,88,-99.99,,,0.25,weatherlink.com 1.10,2013-04-12 10:26:00,
2013-04-12 06:41:00,47.0,43.0,29.67,WNW,297,14.0,-999.0,85,-99.99,,,0.25,weatherlink.com 1.10,2013-04-12 10:41:00,
2013-04-12 06:56:00,46.8,42.0,29.67,WNW,284,10.0,-999.0,83,-99.99,,,0.25,weatherlink.com 1.10,2013-04-12 10:56:00,
2013-04-12 07:11:00,46.2,41.0,29.68,WNW,288,8.0,-999.0,82,-99.99,,,0.25,weatherlink.com 1.10,2013-04-12 11:11:00,
2013-04-12 07:26:00,45.7,41.0,29.69,NNW,333,6.0,-999.0,83,-99.99,,,0.25,weatherlink.com 1.10,2013-04-12 11:26:00,
2013-04-12 07:56:00,46.1,41.0,29.71,WNW,301,3.0,-999.0,83,-99.99,,,0.25,weatherlink.com 1.10,2013-04-12 11:56:00,
2013-04-12 08:11:00,46.1,42.0,29.72,West,273,5.0,-999.0,84,-99.99,,,0.25,weatherlink.com 1.10,2013-04-12 12:11:00,
2013-04-12 08:26:00,47.0,42.0,29.73,NW,313,4.0,-999.0,84,-99.99,,,0.25,weatherlink.com 1.10,2013-04-12 12:26:00,
2013-04-12 08:41:00,46.0,39.0,29.74,West,275,12.0,-999.0,75,-99.99,,,0.25,weatherlink.com 1.10,2013-04-12 12:41:00,
2013-04-12 08:57:00,46.3,39.0,29.74,West,273,6.0,-999.0,76,-99.99,,,0.25,weatherlink.com 1.10,2013-04-12 12:57:00,
2013-04-12 09:12:00,46.8,39.0,29.74,WNW,285,5.0,-999.0,75,-99.99,,,0.25,weatherlink.com 1.10,2013-04-12 13:12:00,
2013-04-12 09:27:00,47.1,38.0,29.75,West,270,8.0,-999.0,72,-99.99,,,0.26,weatherlink.com 1.10,2013-04-12 13:27:00,
2013-04-12 09:42:00,47.2,38.0,29.75,WSW,258,13.0,-999.0,70,-99.99,,,0.26,weatherlink.com 1.10,2013-04-12 13:42:00,
2013-04-12 09:57:00,47.9,39.0,29.76,West,279,14.0,-999.0,70,-99.99,,,0.26,weatherlink.com 1.10,2013-04-12 13:57:00,
2013-04-12 10:12:00,47.6,38.0,29.76,WNW,286,9.0,-999.0,69,-99.99,,,0.26,weatherlink.com 1.10,2013-04-12 14:12:00,
2013-04-12 10:27:00,47.5,36.0,29.77,NW,311,9.0,-999.0,65,-99.99,,,0.26,weatherlink.com 1.10,2013-04-12 14:27:00,
2013-04-12 10:42:00,47.5,35.0,29.78,West,263,15.0,-999.0,63,-99.99,,,0.26,weatherlink.com 1.10,2013-04-12 14:42:00,
2013-04-12 10:57:00,47.4,36.0,29.79,West,280,11.0,-999.0,64,-99.99,,,0.26,weatherlink.com 1.10,2013-04-12 14:57:00,
2013-04-12 11:12:00,47.8,35.0,29.79,NW,312,9.0,-999.0,62,-99.99,,,0.26,weatherlink.com 1.10,2013-04-12 15:12:00,
2013-04-12 11:27:00,48.5,35.0,29.80,WNW,296,8.0,-999.0,60,-99.99,,,0.26,weatherlink.com 1.10,2013-04-12 15:27:00,
2013-04-12 11:42:00,48.7,33.0,29.80,WNW,298,19.0,-999.0,54,-99.99,,,0.26,weatherlink.com 1.10,2013-04-12 15:42:00,
2013-04-12 11:57:00,49.7,34.0,29.80,WSW,255,7.0,-999.0,56,-99.99,,,0.26,weatherlink.com 1.10,2013-04-12 15:57:00,
2013-04-12 12:12:00,50.1,36.0,29.80,West,277,10.0,-999.0,59,-99.99,,,0.26,weatherlink.com 1.10,2013-04-12 16:12:00,
2013-04-12 12:27:00,51.5,36.0,29.80,WSW,242,10.0,-999.0,56,-99.99,,,0.26,weatherlink.com 1.10,2013-04-12 16:27:00,
2013-04-12 12:42:00,51.4,36.0,29.80,West,261,9.0,-999.0,55,-99.99,,,0.26,weatherlink.com 1.10,2013-04-12 16:42:00,
2013-04-12 12:57:00,51.8,35.0,29.80,WNW,297,6.0,-999.0,54,-99.99,,,0.26,weatherlink.com 1.10,2013-04-12 16:57:00,
2013-04-12 13:12:00,52.1,37.0,29.80,WNW,286,8.0,-999.0,56,-99.99,,,0.26,weatherlink.com 1.10,2013-04-12 17:12:00,
2013-04-12 13:27:00,52.1,37.0,29.79,West,266,11.0,-999.0,56,-99.99,,,0.26,weatherlink.com 1.10,2013-04-12 17:27:00,
2013-04-12 13:57:00,54.2,39.0,29.78,WNW,302,13.0,-999.0,56,-99.99,,,0.26,weatherlink.com 1.10,2013-04-12 17:57:00,
2013-04-12 15:27:00,57.4,39.0,29.78,West,275,9.0,-999.0,50,-99.99,,,0.26,weatherlink.com 1.10,2013-04-12 19:27:00,
2013-04-12 15:42:00,57.3,40.0,29.78,WNW,296,9.0,-999.0,52,-99.99,,,0.26,weatherlink.com 1.10,2013-04-12 19:42:00,
2013-04-12 15:57:00,58.3,38.0,29.78,West,271,9.0,-999.0,48,-99.99,,,0.26,weatherlink.com 1.10,2013-04-12 19:57:00,
2013-04-12 16:12:00,57.6,37.0,29.78,West,270,11.0,-999.0,47,-99.99,,,0.26,weatherlink.com 1.10,2013-04-12 20:12:00,
2013-04-12 16:27:00,58.1,39.0,29.78,WNW,292,13.0,-999.0,49,-99.99,,,0.26,weatherlink.com 1.10,2013-04-12 20:27:00,
2013-04-12 16:42:00,57.6,38.0,29.78,West,266,7.0,-999.0,49,-99.99,,,0.26,weatherlink.com 1.10,2013-04-12 20:42:00,
2013-04-12 16:57:00,58.2,39.0,29.78,West,259,8.0,-999.0,49,-99.99,,,0.26,weatherlink.com 1.10,2013-04-12 20:57:00,
2013-04-12 17:12:00,57.1,38.0,29.79,WNW,287,13.0,-999.0,50,-99.99,,,0.26,weatherlink.com 1.10,2013-04-12 21:12:00,
2013-04-12 17:27:00,57.6,39.0,29.79,WSW,244,9.0,-999.0,50,-99.99,,,0.26,weatherlink.com 1.10,2013-04-12 21:27:00,
2013-04-12 17:42:00,57.3,39.0,29.79,West,259,7.0,-999.0,50,-99.99,,,0.26,weatherlink.com 1.10,2013-04-12 21:42:00,
2013-04-12 17:57:00,57.0,38.0,29.80,WNW,290,8.0,-999.0,50,-99.99,,,0.26,weatherlink.com 1.10,2013-04-12 21:57:00,
2013-04-12 18:12:00,56.8,39.0,29.80,West,275,8.0,-999.0,51,-99.99,,,0.26,weatherlink.com 1.10,2013-04-12 22:12:00,
2013-04-12 18:27:00,56.7,40.0,29.80,WSW,248,11.0,-999.0,53,-99.99,,,0.26,weatherlink.com 1.10,2013-04-12 22:27:00,
2013-04-12 18:42:00,56.6,38.0,29.81,WNW,292,6.0,-999.0,50,-99.99,,,0.26,weatherlink.com 1.10,2013-04-12 22:42:00,
2013-04-12 18:57:00,56.3,38.0,29.81,NW,306,5.0,-999.0,51,-99.99,,,0.26,weatherlink.com 1.10,2013-04-12 22:57:00,
2013-04-12 19:12:00,56.1,38.0,29.81,WNW,295,7.0,-999.0,52,-99.99,,,0.26,weatherlink.com 1.10,2013-04-12 23:12:00,
2013-04-12 19:27:00,55.9,39.0,29.82,West,279,4.0,-999.0,53,-99.99,,,0.26,weatherlink.com 1.10,2013-04-12 23:27:00,
2013-04-12 19:42:00,55.7,40.0,29.82,WNW,294,5.0,-999.0,56,-99.99,,,0.26,weatherlink.com 1.10,2013-04-12 23:42:00,
2013-04-12 19:57:00,55.4,40.0,29.82,WNW,294,2.0,-999.0,57,-99.99,,,0.26,weatherlink.com 1.10,2013-04-12 23:57:00,
2013-04-12 20:12:00,55.2,40.0,29.82,WNW,298,5.0,-999.0,57,-99.99,,,0.26,weatherlink.com 1.10,2013-04-13 00:12:00,
2013-04-12 20:27:00,54.9,40.0,29.83,WNW,298,0.0,-999.0,58,-99.99,,,0.26,weatherlink.com 1.10,2013-04-13 00:27:00,
2013-04-12 20:42:00,54.6,40.0,29.84,WNW,298,2.0,-999.0,59,-99.99,,,0.26,weatherlink.com 1.10,2013-04-13 00:42:00,
2013-04-12 20:57:00,54.5,40.0,29.84,WNW,298,4.0,-999.0,59,-99.99,,,0.26,weatherlink.com 1.10,2013-04-13 00:57:00,
2013-04-12 21:12:00,54.3,40.0,29.85,WNW,298,3.0,-999.0,59,-99.99,,,0.26,weatherlink.com 1.10,2013-04-13 01:12:00,
2013-04-12 21:27:00,54.2,40.0,29.85,NW,306,4.0,-999.0,59,-99.99,,,0.26,weatherlink.com 1.10,2013-04-13 01:27:00,
2013-04-12 21:43:00,54.1,40.0,29.86,WNW,294,6.0,-999.0,59,-99.99,,,0.26,weatherlink.com 1.10,2013-04-13 01:43:00,
2013-04-12 21:58:00,53.9,40.0,29.87,NW,317,5.0,-999.0,60,-99.99,,,0.26,weatherlink.com 1.10,2013-04-13 01:58:00,
2013-04-12 22:13:00,53.6,40.0,29.87,WNW,301,2.0,-999.0,61,-99.99,,,0.26,weatherlink.com 1.10,2013-04-13 02:13:00,
2013-04-12 22:28:00,53.3,40.0,29.88,North,5,3.0,-999.0,62,-99.99,,,0.26,weatherlink.com 1.10,2013-04-13 02:28:00,
2013-04-12 22:43:00,51.6,38.0,29.89,NNW,341,5.0,-999.0,61,-99.99,,,0.26,weatherlink.com 1.10,2013-04-13 02:43:00,
2013-04-12 22:58:00,50.8,38.0,29.90,NNW,343,5.0,-999.0,63,-99.99,,,0.26,weatherlink.com 1.10,2013-04-13 02:58:00,
2013-04-12 23:13:00,50.5,39.0,29.90,North,349,2.0,-999.0,64,-99.99,,,0.26,weatherlink.com 1.10,2013-04-13 03:13:00,
2013-04-12 23:28:00,50.1,38.0,29.91,NNW,348,3.0,-999.0,64,-99.99,,,0.26,weatherlink.com 1.10,2013-04-13 03:28:00,
2013-04-12 23:43:00,49.7,37.0,29.91,NW,304,3.0,-999.0,63,-99.99,,,0.26,weatherlink.com 1.10,2013-04-13 03:43:00,
2013-04-12 23:58:00,49.5,38.0,29.91,NW,312,0.0,-999.0,65,-99.99,,,0.26,weatherlink.com 1.10,2013-04-13 03:58:00,